createdAt,value
2022-07-29T00:01:54.272Z,0.65
2022-07-29T00:04:24.629Z,0.40
2022-07-29T00:06:54.919Z,0.70
2022-07-29T00:09:28.570Z,1.30
2022-07-29T00:12:01.196Z,0.77
2022-07-29T00:14:31.582Z,0.60
2022-07-29T00:17:01.854Z,0.55
2022-07-29T00:19:32.033Z,0.70
2022-07-29T00:22:03.245Z,0.47
2022-07-29T00:24:33.532Z,0.55
2022-07-29T00:27:03.980Z,0.52
2022-07-29T00:29:35.072Z,0.55
2022-07-29T00:32:05.857Z,0.65
2022-07-29T00:34:54.654Z,0.65
2022-07-29T00:37:24.889Z,0.60
2022-07-29T00:39:55.122Z,0.60
2022-07-29T00:42:25.422Z,0.68
2022-07-29T00:44:55.645Z,0.50
2022-07-29T00:47:25.881Z,0.47
2022-07-29T00:49:56.091Z,0.47
2022-07-29T00:52:26.500Z,0.43
2022-07-29T00:54:57.645Z,0.55
2022-07-29T00:57:27.923Z,0.70
2022-07-29T00:59:58.255Z,0.40
2022-07-29T01:02:28.532Z,0.50
2022-07-29T01:05:00.600Z,0.52
2022-07-29T01:07:33.564Z,0.30
2022-07-29T01:10:11.453Z,0.60
2022-07-29T01:12:43.591Z,0.60
2022-07-29T01:15:14.059Z,0.45
2022-07-29T01:17:53.357Z,0.43
2022-07-29T01:20:31.701Z,0.43
2022-07-29T01:23:08.181Z,0.57
2022-07-29T01:25:41.012Z,0.50
2022-07-29T01:28:37.472Z,0.65
2022-07-29T01:31:11.809Z,0.77
2022-07-29T01:33:59.966Z,0.60
2022-07-29T01:36:38.382Z,0.80
2022-07-29T01:39:18.141Z,0.38
2022-07-29T01:42:00.244Z,0.90
2022-07-29T01:44:39.235Z,0.60
2022-07-29T01:47:17.051Z,0.45
2022-07-29T01:49:55.920Z,0.40
2022-07-29T01:52:45.065Z,0.68
2022-07-29T01:55:17.654Z,0.75
2022-07-29T01:57:50.937Z,0.40
2022-07-29T02:00:22.940Z,0.60
2022-07-29T02:02:55.848Z,0.52
2022-07-29T02:05:29.724Z,0.45
2022-07-29T02:08:01.634Z,0.40
2022-07-29T02:10:34.809Z,0.40
2022-07-29T02:13:06.954Z,0.30
2022-07-29T02:15:38.644Z,0.40
2022-07-29T02:18:12.790Z,0.47
2022-07-29T02:20:47.883Z,0.30
2022-07-29T02:23:22.671Z,0.43
2022-07-29T02:26:00.965Z,0.50
2022-07-29T02:28:34.081Z,0.50
2022-07-29T02:31:05.711Z,0.50
2022-07-29T02:33:37.409Z,0.40
2022-07-29T02:36:08.437Z,0.47
2022-07-29T02:38:53.739Z,0.40
2022-07-29T02:41:34.561Z,0.40
2022-07-29T02:44:15.579Z,0.75
2022-07-29T02:47:03.558Z,0.35
2022-07-29T02:49:41.937Z,0.40
2022-07-29T02:52:19.601Z,0.45
2022-07-29T02:55:03.915Z,0.43
2022-07-29T02:57:53.933Z,0.60
2022-07-29T03:00:30.118Z,0.50
2022-07-29T03:03:04.918Z,0.50
2022-07-29T03:05:36.376Z,0.50
2022-07-29T03:08:10.783Z,0.50
2022-07-29T03:10:45.499Z,0.50
2022-07-29T03:13:16.866Z,0.57
2022-07-29T03:15:48.363Z,0.60
2022-07-29T03:18:19.025Z,0.40
2022-07-29T03:20:49.456Z,0.40
2022-07-29T03:23:21.965Z,0.80
2022-07-29T03:25:52.409Z,0.52
2022-07-29T03:28:23.194Z,0.55
2022-07-29T03:30:57.243Z,0.70
2022-07-29T03:33:27.522Z,0.60
2022-07-29T03:35:58.180Z,0.63
2022-07-29T03:38:30.793Z,0.60
2022-07-29T03:41:06.968Z,0.70
2022-07-29T03:43:49.407Z,0.60
2022-07-29T03:46:24.328Z,0.60
2022-07-29T03:48:59.667Z,0.50
2022-07-29T03:51:33.737Z,0.77
2022-07-29T03:54:09.842Z,1.33
2022-07-29T03:56:49.679Z,2.35
2022-07-29T03:59:22.018Z,2.95
2022-07-29T04:01:53.053Z,3.30
2022-07-29T04:04:23.553Z,2.97
2022-07-29T04:06:54.274Z,3.13
2022-07-29T04:09:24.701Z,2.85
2022-07-29T04:12:02.171Z,1.85
2022-07-29T04:14:34.544Z,1.63
2022-07-29T04:17:05.867Z,1.25
2022-07-29T04:19:36.128Z,0.93
2022-07-29T04:22:06.348Z,0.90
2022-07-29T04:24:36.617Z,0.93
2022-07-29T04:27:06.824Z,0.57
2022-07-29T04:29:37.048Z,1.00
2022-07-29T04:32:27.980Z,0.70
2022-07-29T04:34:58.232Z,0.38
2022-07-29T04:37:28.451Z,0.50
2022-07-29T04:39:58.723Z,0.60
2022-07-29T04:42:29.449Z,0.30
2022-07-29T04:45:01.344Z,0.57
2022-07-29T04:47:31.739Z,0.30
2022-07-29T04:50:02.197Z,0.30
2022-07-29T04:52:32.454Z,0.40
2022-07-29T04:55:04.617Z,0.30
2022-07-29T04:57:34.919Z,0.40
2022-07-29T05:00:06.578Z,0.30
2022-07-29T05:02:36.804Z,0.60
2022-07-29T05:05:08.066Z,0.47
2022-07-29T05:07:38.416Z,0.25
2022-07-29T05:10:09.634Z,0.30
2022-07-29T05:12:39.832Z,0.20
2022-07-29T05:15:10.703Z,0.38
2022-07-29T05:17:41.097Z,0.20
2022-07-29T05:20:11.496Z,0.30
2022-07-29T05:22:41.707Z,0.20
2022-07-29T05:25:11.905Z,0.20
2022-07-29T05:27:42.200Z,0.22
2022-07-29T05:30:12.772Z,0.20
2022-07-29T05:32:43.026Z,0.10
2022-07-29T05:35:20.211Z,0.30
2022-07-29T05:37:50.398Z,0.20
2022-07-29T05:40:21.464Z,0.32
2022-07-29T05:42:52.541Z,0.40
2022-07-29T05:45:22.802Z,0.45
2022-07-29T05:47:53.407Z,0.20
2022-07-29T05:50:23.660Z,0.13
2022-07-29T05:52:53.952Z,0.20
2022-07-29T05:55:24.200Z,0.40
2022-07-29T05:57:54.465Z,0.20
2022-07-29T06:00:24.771Z,0.20
2022-07-29T06:02:54.990Z,0.20
2022-07-29T06:05:25.219Z,0.45
2022-07-29T06:07:55.386Z,0.15
2022-07-29T06:10:28.653Z,0.30
2022-07-29T06:12:58.800Z,0.20
2022-07-29T06:15:29.049Z,0.20
2022-07-29T06:18:01.267Z,0.30
2022-07-29T06:20:35.291Z,0.10
2022-07-29T06:23:05.711Z,0.30
2022-07-29T06:25:37.764Z,0.25
2022-07-29T06:28:08.125Z,0.28
2022-07-29T06:30:38.811Z,0.40
2022-07-29T06:33:09.526Z,0.38
2022-07-29T06:35:41.992Z,0.30
2022-07-29T06:38:30.747Z,0.30
2022-07-29T06:41:08.690Z,0.20
2022-07-29T06:43:52.497Z,0.30
2022-07-29T06:46:24.924Z,0.47
2022-07-29T06:48:55.490Z,1.02
2022-07-29T06:51:26.260Z,0.38
2022-07-29T06:53:59.979Z,0.17
2022-07-29T06:56:40.226Z,0.10
2022-07-29T06:59:12.346Z,0.20
2022-07-29T07:01:44.283Z,0.13
2022-07-29T07:04:15.249Z,0.38
2022-07-29T07:06:59.592Z,0.20
2022-07-29T07:09:40.040Z,0.25
2022-07-29T07:12:11.155Z,0.30
2022-07-29T07:14:42.124Z,0.10
2022-07-29T07:17:12.429Z,0.15
2022-07-29T07:19:42.599Z,0.17
2022-07-29T07:22:16.746Z,0.22
2022-07-29T07:24:46.995Z,0.17
2022-07-29T07:27:19.809Z,0.20
2022-07-29T07:29:50.178Z,0.20
2022-07-29T07:32:20.748Z,0.10
2022-07-29T07:34:50.989Z,0.10
2022-07-29T07:37:21.750Z,0.20
2022-07-29T07:39:53.074Z,0.40
2022-07-29T07:42:23.612Z,0.30
2022-07-29T07:45:12.441Z,0.35
2022-07-29T07:47:51.999Z,0.38
2022-07-29T07:50:22.254Z,0.15
2022-07-29T07:52:56.136Z,0.20
2022-07-29T07:55:27.490Z,0.30
2022-07-29T07:57:57.754Z,0.10
2022-07-29T08:00:28.316Z,0.13
2022-07-29T08:02:58.651Z,0.20
2022-07-29T08:05:29.047Z,0.30
2022-07-29T08:07:59.239Z,0.10
2022-07-29T08:10:47.843Z,0.17
2022-07-29T08:13:18.090Z,0.17
2022-07-29T08:15:48.627Z,0.20
2022-07-29T08:18:18.801Z,0.30
2022-07-29T08:20:49.059Z,0.20
2022-07-29T08:23:22.913Z,0.17
2022-07-29T08:25:54.816Z,0.05
2022-07-29T08:28:26.121Z,0.10
2022-07-29T08:30:56.489Z,0.57
2022-07-29T08:33:26.780Z,0.20
2022-07-29T08:35:57.127Z,0.10
2022-07-29T08:38:28.494Z,0.10
2022-07-29T08:40:59.897Z,0.30
2022-07-29T08:43:30.353Z,0.20
2022-07-29T08:46:01.801Z,0.15
2022-07-29T08:48:33.268Z,0.13
2022-07-29T08:51:04.453Z,0.43
2022-07-29T08:53:35.265Z,0.20
2022-07-29T08:56:06.673Z,0.30
2022-07-29T08:58:38.565Z,0.40
2022-07-29T09:01:12.340Z,0.45
2022-07-29T09:03:44.804Z,0.30
2022-07-29T09:06:18.228Z,0.75
2022-07-29T09:08:48.583Z,0.30
2022-07-29T09:11:22.046Z,0.30
2022-07-29T09:13:52.336Z,0.30
2022-07-29T09:16:50.985Z,0.40
2022-07-29T09:19:34.703Z,0.25
2022-07-29T09:22:07.159Z,0.40
2022-07-29T09:24:39.758Z,0.30
2022-07-29T09:27:28.229Z,0.30
2022-07-29T09:29:59.189Z,0.28
2022-07-29T09:32:30.771Z,0.10
2022-07-29T09:35:20.062Z,0.25
2022-07-29T09:37:51.583Z,0.20
2022-07-29T09:40:28.602Z,0.20
2022-07-29T09:42:58.932Z,0.10
2022-07-29T09:45:34.861Z,0.10
2022-07-29T09:48:19.644Z,0.10
2022-07-29T09:50:50.961Z,0.20
2022-07-29T09:53:35.729Z,0.20
2022-07-29T09:56:06.411Z,0.30
2022-07-29T09:58:36.766Z,0.20
2022-07-29T10:01:07.305Z,0.30
2022-07-29T10:03:54.123Z,0.15
2022-07-29T10:06:24.445Z,0.30
2022-07-29T10:08:55.256Z,0.28
2022-07-29T10:11:25.489Z,0.20
2022-07-29T10:14:16.379Z,0.30
2022-07-29T10:16:46.928Z,0.30
2022-07-29T10:19:18.525Z,0.20
2022-07-29T10:21:49.730Z,0.10
2022-07-29T10:24:21.001Z,0.10
2022-07-29T10:26:51.826Z,0.20
2022-07-29T10:29:21.979Z,0.22
2022-07-29T10:32:39.206Z,0.08
2022-07-29T10:35:22.051Z,0.13
2022-07-29T10:38:01.338Z,0.28
2022-07-29T10:41:03.303Z,0.20
2022-07-29T10:46:15.811Z,0.20
2022-07-29T10:49:06.016Z,0.20
2022-07-29T10:52:00.823Z,0.10
2022-07-29T10:57:54.178Z,0.28
2022-07-29T11:00:28.972Z,0.15
2022-07-29T11:03:02.120Z,0.22
2022-07-29T11:05:59.863Z,0.40
2022-07-29T11:08:32.687Z,0.30
2022-07-29T11:11:22.164Z,0.20
2022-07-29T11:13:57.102Z,0.30
2022-07-29T11:16:47.795Z,0.28
2022-07-29T11:19:26.675Z,0.40
2022-07-29T11:22:01.427Z,0.20
2022-07-29T11:24:35.002Z,0.35
2022-07-29T11:27:22.430Z,0.20
2022-07-29T11:29:57.135Z,0.20
2022-07-29T11:32:42.087Z,0.20
2022-07-29T11:35:38.046Z,0.10
2022-07-29T11:38:28.831Z,0.20
2022-07-29T11:41:20.887Z,0.15
2022-07-29T11:44:05.594Z,0.50
2022-07-29T11:46:53.860Z,0.30
2022-07-29T11:49:32.434Z,0.20
2022-07-29T11:52:07.303Z,0.30
2022-07-29T11:54:57.551Z,0.43
2022-07-29T11:57:37.551Z,0.10
2022-07-29T12:00:12.254Z,0.20
2022-07-29T12:02:48.174Z,0.38
2022-07-29T12:08:14.553Z,0.20
2022-07-29T12:10:47.200Z,0.20
2022-07-29T12:13:21.184Z,0.22
2022-07-29T12:16:00.145Z,0.20
2022-07-29T12:18:30.629Z,0.28
2022-07-29T12:21:05.776Z,0.30
2022-07-29T12:23:37.102Z,0.20
2022-07-29T12:26:11.115Z,0.10
2022-07-29T12:28:56.045Z,0.38
2022-07-29T12:31:43.360Z,0.30
2022-07-29T12:34:17.591Z,0.25
2022-07-29T12:36:48.372Z,0.30
2022-07-29T12:39:19.668Z,0.20
2022-07-29T12:41:50.255Z,0.30
2022-07-29T12:44:20.901Z,0.22
2022-07-29T12:47:06.694Z,0.38
2022-07-29T12:49:39.972Z,0.20
2022-07-29T12:52:31.199Z,0.50
2022-07-29T12:55:02.423Z,0.30
2022-07-29T12:57:33.291Z,0.35
2022-07-29T13:00:12.490Z,0.38
2022-07-29T13:02:44.781Z,0.40
2022-07-29T13:05:15.082Z,0.30
2022-07-29T13:07:55.959Z,0.30
2022-07-29T13:10:37.865Z,0.38
2022-07-29T13:13:13.093Z,0.35
2022-07-29T13:15:46.024Z,0.50
2022-07-29T13:18:35.005Z,0.40
2022-07-29T13:21:38.938Z,0.20
2022-07-29T13:24:10.313Z,0.30
2022-07-29T13:26:42.032Z,0.20
2022-07-29T13:29:12.356Z,0.50
2022-07-29T13:31:45.407Z,0.20
2022-07-29T13:34:15.655Z,0.25
2022-07-29T13:36:45.796Z,0.38
2022-07-29T13:39:16.060Z,0.30
2022-07-29T13:41:51.126Z,0.20
2022-07-29T13:44:21.422Z,0.20
2022-07-29T13:46:51.931Z,0.13
2022-07-29T13:49:22.429Z,0.30
2022-07-29T13:51:52.893Z,0.30
2022-07-29T13:54:23.088Z,0.20
2022-07-29T13:56:53.262Z,0.30
2022-07-29T13:59:25.508Z,0.40
2022-07-29T14:01:56.423Z,0.35
2022-07-29T14:04:27.305Z,0.25
2022-07-29T14:06:57.773Z,0.40
2022-07-29T14:09:28.241Z,0.30
2022-07-29T14:11:58.855Z,0.50
2022-07-29T14:14:30.576Z,0.30
2022-07-29T14:17:01.277Z,0.20
2022-07-29T14:19:33.121Z,0.30
2022-07-29T14:22:07.677Z,0.20
2022-07-29T14:24:39.755Z,0.20
2022-07-29T14:27:14.460Z,0.30
2022-07-29T14:29:45.087Z,0.20
2022-07-29T14:32:16.125Z,0.10
2022-07-29T14:34:46.695Z,0.25
2022-07-29T14:37:16.882Z,0.38
2022-07-29T14:39:47.065Z,0.20
2022-07-29T14:42:17.270Z,0.20
2022-07-29T14:44:48.979Z,0.30
2022-07-29T14:47:19.980Z,0.10
2022-07-29T14:49:53.048Z,0.20
2022-07-29T14:52:23.296Z,0.30
2022-07-29T14:54:53.612Z,0.10
2022-07-29T14:57:24.071Z,0.10
2022-07-29T14:59:54.370Z,0.30
2022-07-29T15:02:45.847Z,0.35
2022-07-29T15:05:16.790Z,0.30
2022-07-29T15:07:47.224Z,0.20
2022-07-29T15:10:17.484Z,0.10
2022-07-29T15:12:47.678Z,0.10
2022-07-29T15:15:17.955Z,0.30
2022-07-29T15:17:48.703Z,0.28
2022-07-29T15:20:19.399Z,0.17
2022-07-29T15:22:49.598Z,0.20
2022-07-29T15:25:20.272Z,0.38
2022-07-29T15:27:52.802Z,0.28
2022-07-29T15:30:32.376Z,0.20
2022-07-29T15:33:04.446Z,0.22
2022-07-29T15:35:40.241Z,0.25
2022-07-29T15:38:11.034Z,0.20
2022-07-29T15:40:42.492Z,0.40
2022-07-29T15:43:12.928Z,0.20
2022-07-29T15:46:06.839Z,0.30
2022-07-29T15:48:40.015Z,0.30
2022-07-29T15:51:10.298Z,0.20
2022-07-29T15:53:42.879Z,0.30
2022-07-29T15:56:13.218Z,0.28
2022-07-29T15:58:43.768Z,0.22
2022-07-29T16:01:14.277Z,0.30
2022-07-29T16:03:46.355Z,0.40
2022-07-29T16:06:17.248Z,0.30
2022-07-29T16:08:47.481Z,0.13
2022-07-29T16:11:17.645Z,0.30
2022-07-29T16:13:47.779Z,0.50
2022-07-29T16:16:20.300Z,0.60
2022-07-29T16:18:57.017Z,0.52
2022-07-29T16:21:27.267Z,0.22
2022-07-29T16:24:05.025Z,0.30
2022-07-29T16:26:35.844Z,0.40
2022-07-29T16:29:06.141Z,0.50
2022-07-29T16:31:36.441Z,0.43
2022-07-29T16:34:06.764Z,0.50
2022-07-29T16:36:37.047Z,0.43
2022-07-29T16:39:07.216Z,0.40
2022-07-29T16:41:37.471Z,0.70
2022-07-29T16:44:07.642Z,0.43
2022-07-29T16:46:39.059Z,0.30
2022-07-29T16:49:12.165Z,0.50
2022-07-29T16:51:48.957Z,0.55
2022-07-29T16:54:20.340Z,0.55
2022-07-29T16:56:50.566Z,0.47
2022-07-29T16:59:20.873Z,0.50
2022-07-29T17:01:51.174Z,0.68
2022-07-29T17:04:22.892Z,0.77
2022-07-29T17:06:53.371Z,0.60
2022-07-29T17:09:24.036Z,0.65
2022-07-29T17:11:55.264Z,0.90
2022-07-29T17:14:31.578Z,0.60
2022-07-29T17:17:03.158Z,0.60
2022-07-29T17:19:35.879Z,0.40
2022-07-29T17:22:15.472Z,0.60
2022-07-29T17:24:48.898Z,0.60
2022-07-29T17:27:20.047Z,0.47
2022-07-29T17:29:50.775Z,0.63
2022-07-29T17:32:21.244Z,0.70
2022-07-29T17:34:51.583Z,0.52
2022-07-29T17:37:21.918Z,0.60
2022-07-29T17:39:52.055Z,0.38
2022-07-29T17:42:22.344Z,0.40
2022-07-29T17:44:52.595Z,0.50
2022-07-29T17:47:22.786Z,0.50
2022-07-29T17:49:53.002Z,0.60
2022-07-29T17:52:23.238Z,0.40
2022-07-29T17:54:53.437Z,0.57
2022-07-29T17:57:23.721Z,0.50
2022-07-29T17:59:53.861Z,0.40
2022-07-29T18:02:25.032Z,0.40
2022-07-29T18:04:57.332Z,0.52
2022-07-29T18:07:27.785Z,0.50
2022-07-29T18:10:00.544Z,0.30
2022-07-29T18:12:31.217Z,0.40
2022-07-29T18:15:01.505Z,0.38
2022-07-29T18:17:52.895Z,0.50
2022-07-29T18:20:21.901Z,0.47
2022-07-29T18:22:52.118Z,0.40
2022-07-29T18:25:22.502Z,0.30
2022-07-29T18:27:56.195Z,0.40
2022-07-29T18:30:30.955Z,0.50
2022-07-29T18:36:10.687Z,0.68
2022-07-29T18:38:42.048Z,1.58
2022-07-29T18:41:12.534Z,0.55
2022-07-29T18:43:42.735Z,0.50
2022-07-29T18:46:15.230Z,0.50
2022-07-29T18:48:45.514Z,0.55
2022-07-29T18:51:16.313Z,0.60
2022-07-29T18:53:47.068Z,0.60
2022-07-29T18:56:17.454Z,0.50
2022-07-29T18:58:50.450Z,0.52
2022-07-29T19:01:20.857Z,0.88
2022-07-29T19:03:51.067Z,0.60
2022-07-29T19:06:25.413Z,0.70
2022-07-29T19:08:56.806Z,0.80
2022-07-29T19:11:27.059Z,0.75
2022-07-29T19:13:57.440Z,1.00
2022-07-29T19:16:27.783Z,0.90
2022-07-29T19:18:58.292Z,1.50
2022-07-29T19:21:28.756Z,1.75
2022-07-29T19:24:00.699Z,2.45
2022-07-29T19:26:38.753Z,2.50
2022-07-29T19:29:09.298Z,2.50
2022-07-29T19:31:40.708Z,2.15
2022-07-29T19:34:11.210Z,1.67
2022-07-29T19:36:42.029Z,1.38
2022-07-29T19:40:52.489Z,0.90
2022-07-29T19:43:51.173Z,1.05
2022-07-29T19:46:12.718Z,0.82
2022-07-29T19:48:42.877Z,0.70
2022-07-29T19:51:12.952Z,1.20
2022-07-29T19:53:43.109Z,0.60
2022-07-29T19:56:13.535Z,0.93
2022-07-29T19:58:45.496Z,0.70
2022-07-29T20:01:16.787Z,0.65
2022-07-29T20:03:46.847Z,0.80
2022-07-29T20:06:16.909Z,1.52
2022-07-29T20:08:47.048Z,1.35
2022-07-29T20:11:17.246Z,0.88
2022-07-29T20:13:47.241Z,1.00
2022-07-29T20:16:17.640Z,1.08
2022-07-29T20:18:47.656Z,0.93
2022-07-29T20:21:17.881Z,0.90
2022-07-29T20:23:47.898Z,0.82
2022-07-29T20:26:17.953Z,0.82
2022-07-29T20:28:49.622Z,0.70
2022-07-29T20:31:19.829Z,1.38
2022-07-29T20:33:50.717Z,0.80
2022-07-29T20:36:20.796Z,0.68
2022-07-29T20:38:51.112Z,0.63
2022-07-29T20:41:21.325Z,0.60
2022-07-29T20:43:51.500Z,0.60
2022-07-29T20:46:22.139Z,0.63
2022-07-29T20:48:53.813Z,0.50
2022-07-29T20:51:24.542Z,0.95
2022-07-29T20:53:55.215Z,0.50
2022-07-29T20:56:25.453Z,0.80
2022-07-29T20:58:55.518Z,0.60
2022-07-29T21:01:25.661Z,0.75
2022-07-29T21:03:55.706Z,0.80
2022-07-29T21:06:25.879Z,0.70
2022-07-29T21:08:58.058Z,0.70
2022-07-29T21:11:43.547Z,0.70
2022-07-29T21:14:37.471Z,0.70
2022-07-29T21:17:08.124Z,0.52
2022-07-29T21:19:38.194Z,0.50
2022-07-29T21:22:08.222Z,0.50
2022-07-29T21:24:38.299Z,0.60
2022-07-29T21:27:26.857Z,0.75
2022-07-29T21:29:57.148Z,0.40
2022-07-29T21:32:30.589Z,0.45
2022-07-29T21:35:00.974Z,0.40
2022-07-29T21:37:31.106Z,0.65
2022-07-29T21:40:01.160Z,0.55
2022-07-29T21:42:31.237Z,0.50
2022-07-29T21:45:01.316Z,0.40
2022-07-29T21:47:31.533Z,0.30
2022-07-29T21:50:01.544Z,0.35
2022-07-29T21:52:31.586Z,0.40
2022-07-29T21:55:01.694Z,0.55
2022-07-29T21:57:31.786Z,0.60
2022-07-29T22:00:03.149Z,0.40
2022-07-29T22:02:33.519Z,0.40
2022-07-29T22:05:03.616Z,0.30
2022-07-29T22:07:54.628Z,0.60
2022-07-29T22:10:24.507Z,0.40
2022-07-29T22:12:55.258Z,0.47
2022-07-29T22:15:25.628Z,0.38
2022-07-29T22:17:55.864Z,0.50
2022-07-29T22:20:26.292Z,0.43
2022-07-29T22:22:56.365Z,0.50
2022-07-29T22:25:26.316Z,0.40
2022-07-29T22:27:56.390Z,0.40
2022-07-29T22:30:26.845Z,0.43
2022-07-29T22:32:57.098Z,0.45
2022-07-29T22:35:27.244Z,0.40
2022-07-29T22:37:57.264Z,0.40
2022-07-29T22:40:30.612Z,0.30
2022-07-29T22:43:01.094Z,0.50
2022-07-29T22:45:31.071Z,0.45
2022-07-29T22:48:01.196Z,0.90
2022-07-29T22:50:31.199Z,0.47
2022-07-29T22:53:01.332Z,0.40
2022-07-29T22:55:31.352Z,0.50
2022-07-29T22:58:01.419Z,0.50
2022-07-29T23:00:31.408Z,0.45
2022-07-29T23:03:01.388Z,0.25
2022-07-29T23:05:31.482Z,0.50
2022-07-29T23:08:01.698Z,0.50
2022-07-29T23:10:31.748Z,0.60
2022-07-29T23:13:01.832Z,0.40
2022-07-29T23:15:31.815Z,0.40
2022-07-29T23:18:01.867Z,0.50
2022-07-29T23:20:37.749Z,0.40
2022-07-29T23:23:07.824Z,0.40
2022-07-29T23:25:37.873Z,0.50
2022-07-29T23:28:11.617Z,0.32
2022-07-29T23:30:43.373Z,0.20
2022-07-29T23:33:13.462Z,0.40
2022-07-29T23:35:43.515Z,0.40
2022-07-29T23:38:13.563Z,0.52
2022-07-29T23:40:43.545Z,0.40
2022-07-29T23:43:13.599Z,0.50
2022-07-29T23:45:45.175Z,0.30
2022-07-29T23:48:18.864Z,0.40
2022-07-29T23:50:48.874Z,0.30
2022-07-29T23:53:18.901Z,0.40
2022-07-29T23:55:48.961Z,0.30
2022-07-29T23:58:18.990Z,0.38
